Time;durP1;ratioP1;P1;durP2;ratioP2;P2;SDS_P1;SDS_P2;PMS_P1;PMS_P2;Temp;Humidity;BMP_temperature;BMP_pressure;BME280_temperature;BME280_humidity;BME280_pressure;Samples;Min_cycle;Max_cycle;Signal;HPM_P1;HPM_P2
2024/04/10 00:01:07;;;;;;;2.20;0.50;;;;;;;13.44;73.64;101255.97;5419040;26;20546;-67
2024/04/10 00:03:34;;;;;;;2.40;0.60;;;;;;;13.46;73.82;101252.94;5418992;26;20611;-68
2024/04/10 00:06:03;;;;;;;2.10;0.40;;;;;;;13.46;71.91;101255.66;5418963;26;20504;-67
2024/04/10 00:08:30;;;;;;;2.20;0.40;;;;;;;13.44;73.07;101263.34;5419022;26;20598;-66
2024/04/10 00:10:58;;;;;;;2.10;0.40;;;;;;;13.44;73.41;101255.19;5418639;26;20459;-66
2024/04/10 00:13:24;;;;;;;2.20;0.50;;;;;;;13.43;73.06;101265.25;5418847;26;20483;-66
2024/04/10 00:16:06;;;;;;;6.77;0.77;;;;;;;13.40;74.25;101271.31;5418879;26;20911;-67
2024/04/10 00:18:33;;;;;;;2.23;0.43;;;;;;;13.34;74.48;101265.16;5418939;26;20268;-67
2024/04/10 00:21:01;;;;;;;2.00;0.30;;;;;;;13.40;74.13;101267.78;5418833;26;20569;-67
2024/04/10 00:23:27;;;;;;;2.07;0.40;;;;;;;13.40;73.76;101262.34;5418773;26;20467;-67
2024/04/10 00:25:57;;;;;;;2.30;0.40;;;;;;;13.41;74.15;101250.34;5418311;26;20523;-67
2024/04/10 00:28:23;;;;;;;2.10;0.40;;;;;;;13.37;74.11;101245.53;5418867;26;20225;-67
2024/04/10 00:30:51;;;;;;;2.03;0.40;;;;;;;13.40;74.14;101240.56;5418894;26;20518;-67
2024/04/10 00:33:20;;;;;;;2.00;0.30;;;;;;;13.41;74.42;101244.88;5421109;26;20475;-69
2024/04/10 00:35:57;;;;;;;2.20;0.50;;;;;;;13.43;74.06;101253.56;5418828;26;20800;-67
2024/04/10 00:38:23;;;;;;;2.77;0.67;;;;;;;13.40;73.78;101265.84;5418605;26;20459;-67
2024/04/10 00:40:55;;;;;;;2.13;0.40;;;;;;;13.40;74.66;101254.97;5418090;26;20499;-67
2024/04/10 00:43:21;;;;;;;2.60;0.60;;;;;;;13.41;73.51;101263.94;5418591;26;20482;-67
2024/04/10 00:45:56;;;;;;;2.40;0.53;;;;;;;13.38;73.83;101263.44;5418364;26;21046;-67
2024/04/10 00:48:24;;;;;;;2.00;0.30;;;;;;;13.39;73.71;101261.53;5418507;26;20997;-67
2024/04/10 00:50:54;;;;;;;2.00;0.40;;;;;;;13.38;74.87;101271.63;5418487;26;20580;-67
2024/04/10 00:53:21;;;;;;;2.53;0.53;;;;;;;13.40;74.36;101279.47;5417861;26;20698;-68
2024/04/10 00:55:50;;;;;;;2.20;0.50;;;;;;;13.41;76.11;101277.53;5418306;26;20806;-68
2024/04/10 00:58:16;;;;;;;2.20;0.60;;;;;;;13.43;73.49;101280.78;5418311;26;20459;-67
2024/04/10 01:00:45;;;;;;;2.30;0.50;;;;;;;13.36;73.91;101286.63;5416538;26;20451;-67
2024/04/10 01:03:10;;;;;;;2.27;0.60;;;;;;;13.30;74.40;101288.63;5418002;26;20475;-67
2024/04/10 01:05:41;;;;;;;2.37;0.50;;;;;;;13.29;75.27;101300.63;5417820;26;20515;-67
2024/04/10 01:08:07;;;;;;;2.10;0.40;;;;;;;13.29;74.43;101308.81;5382795;26;20222;-67
2024/04/10 01:10:36;;;;;;;2.20;0.40;;;;;;;13.24;75.42;101321.69;5382678;26;20516;-67
2024/04/10 01:13:01;;;;;;;2.30;0.50;;;;;;;13.22;75.10;101313.00;5382576;26;20282;-67
2024/04/10 01:15:30;;;;;;;4.60;0.70;;;;;;;13.19;74.72;101314.38;5382596;26;20453;-67
2024/04/10 01:17:55;;;;;;;2.20;0.47;;;;;;;13.13;74.10;101321.03;5382751;26;20718;-67
2024/04/10 01:20:23;;;;;;;2.57;0.50;;;;;;;13.18;74.41;101323.66;5382754;26;20541;-67
2024/04/10 01:22:52;;;;;;;2.30;0.50;;;;;;;13.19;74.83;101319.81;5382396;26;20283;-67
2024/04/10 01:25:23;;;;;;;2.53;0.67;;;;;;;13.19;74.59;101327.19;5382420;26;20516;-67
2024/04/10 01:27:49;;;;;;;2.10;0.40;;;;;;;13.26;73.23;101330.34;5382519;26;20988;-67
2024/04/10 01:30:17;;;;;;;2.20;0.50;;;;;;;13.25;72.44;101328.75;5382379;26;20504;-68
2024/04/10 01:32:43;;;;;;;2.30;0.60;;;;;;;13.24;71.78;101327.16;5382187;26;20239;-67
2024/04/10 01:35:11;;;;;;;2.20;0.40;;;;;;;13.24;72.13;101338.84;5382836;26;20464;-67
2024/04/10 01:37:37;;;;;;;2.10;0.40;;;;;;;13.24;71.54;101349.72;5382382;26;20222;-68
2024/04/10 01:40:06;;;;;;;2.53;0.60;;;;;;;13.24;71.46;101354.34;5382305;26;20449;-67
2024/04/10 01:42:34;;;;;;;2.30;0.50;;;;;;;13.19;72.09;101347.03;5382036;26;20234;-68
2024/04/10 01:45:04;;;;;;;4.67;0.70;;;;;;;13.20;71.65;101332.34;5382041;26;20597;-68
2024/04/10 01:47:29;;;;;;;2.63;0.70;;;;;;;13.23;70.42;101331.75;5395939;21;20452;-69
2024/04/10 01:49:58;;;;;;;2.10;0.50;;;;;;;13.23;70.67;101331.75;5381971;26;20821;-70
2024/04/10 01:52:23;;;;;;;2.50;0.70;;;;;;;13.26;69.88;101336.59;5387470;26;20267;-71
2024/04/10 01:54:52;;;;;;;2.20;0.53;;;;;;;13.28;70.26;101326.25;5417142;26;20463;-71
2024/04/10 01:57:21;;;;;;;2.20;0.50;;;;;;;13.31;69.34;101327.53;5417254;26;20595;-71
2024/04/10 01:59:50;;;;;;;2.20;0.53;;;;;;;13.22;69.05;101335.59;5417112;26;21005;-72
2024/04/10 02:02:18;;;;;;;5.00;0.70;;;;;;;13.21;70.09;101341.31;5416699;26;20466;-71
2024/04/10 02:04:44;;;;;;;2.20;0.50;;;;;;;13.18;70.96;101341.91;5417094;26;20458;-71
2024/04/10 02:07:13;;;;;;;2.50;0.50;;;;;;;13.20;71.39;101356.81;5417125;26;20839;-72
2024/04/10 02:09:38;;;;;;;2.10;0.40;;;;;;;13.23;71.19;101360.88;5417275;26;20455;-71
2024/04/10 02:12:07;;;;;;;2.20;0.50;;;;;;;13.26;69.91;101368.44;5417932;26;21053;-71
2024/04/10 02:14:35;;;;;;;2.20;0.53;;;;;;;13.25;70.67;101383.97;5420520;26;20233;-72
2024/04/10 02:17:06;;;;;;;2.10;0.50;;;;;;;13.24;71.17;101379.63;5420407;26;21090;-71
2024/04/10 02:19:32;;;;;;;2.53;0.80;;;;;;;13.23;70.19;101386.16;5420535;26;20841;-69
2024/04/10 02:22:00;;;;;;;2.20;0.47;;;;;;;13.23;68.71;101386.16;5420397;26;20451;-71
2024/04/10 02:24:26;;;;;;;2.27;0.50;;;;;;;13.14;69.17;101379.75;5419932;26;20229;-71
2024/04/10 02:26:54;;;;;;;2.10;0.30;;;;;;;13.15;69.43;101378.69;5420512;26;20649;-71
2024/04/10 02:29:20;;;;;;;2.70;0.80;;;;;;;13.19;69.74;101378.88;5420377;26;20260;-71
2024/04/10 02:31:48;;;;;;;2.93;0.63;;;;;;;13.21;68.93;101382.91;5420230;26;20443;-72
2024/04/10 02:34:17;;;;;;;2.17;0.47;;;;;;;13.15;68.67;101384.13;5420221;26;20280;-71
2024/04/10 02:36:45;;;;;;;2.87;0.67;;;;;;;13.13;67.95;101389.84;5419671;26;20511;-71
2024/04/10 02:39:11;;;;;;;2.10;0.40;;;;;;;13.11;67.90;101383.91;5419536;26;21017;-71
2024/04/10 02:41:39;;;;;;;2.20;0.40;;;;;;;13.08;68.38;101383.69;5420226;26;20505;-71
2024/04/10 02:44:05;;;;;;;2.20;0.47;;;;;;;13.10;67.85;101392.34;5420113;26;20279;-70
2024/04/10 02:46:33;;;;;;;2.73;0.60;;;;;;;13.07;67.76;101392.97;5419683;26;20792;-71
2024/04/10 02:48:59;;;;;;;2.10;0.40;;;;;;;13.08;68.61;101389.13;5420074;26;21013;-71
2024/04/10 02:51:30;;;;;;;2.30;0.70;;;;;;;13.05;67.58;101400.59;5420062;26;20458;-71
2024/04/10 02:53:55;;;;;;;3.20;0.50;;;;;;;13.02;68.51;101399.28;5419668;26;20279;-72
2024/04/10 02:56:24;;;;;;;2.10;0.40;;;;;;;13.05;67.26;101395.97;5419790;26;20463;-70
2024/04/10 02:58:49;;;;;;;3.70;0.60;;;;;;;13.05;67.05;101406.03;5419902;26;20268;-70
2024/04/10 03:01:18;;;;;;;2.20;0.50;;;;;;;13.04;67.11;101415.31;5419893;26;20463;-71
2024/04/10 03:03:43;;;;;;;2.30;0.50;;;;;;;12.96;68.49;101419.50;5419264;26;20233;-71
2024/04/10 03:06:12;;;;;;;3.73;0.60;;;;;;;13.00;66.70;101422.44;5419602;26;20515;-71
2024/04/10 03:08:40;;;;;;;2.30;0.53;;;;;;;13.00;67.33;101433.31;5419828;26;20221;-71
2024/04/10 03:11:08;;;;;;;2.10;0.40;;;;;;;12.94;68.65;101437.22;5419905;26;20455;-70
2024/04/10 03:13:35;;;;;;;2.50;0.57;;;;;;;12.93;67.40;101444.59;5419584;26;20561;-70
2024/04/10 03:16:03;;;;;;;2.00;0.40;;;;;;;12.92;67.95;101455.75;5419259;26;20534;-70
2024/04/10 03:18:29;;;;;;;2.10;0.40;;;;;;;12.90;68.06;101463.41;5419786;26;20606;-72
2024/04/10 03:20:58;;;;;;;2.37;0.60;;;;;;;12.90;67.27;101460.69;5419663;26;21014;-71
2024/04/10 03:23:24;;;;;;;2.93;0.53;;;;;;;12.89;67.73;101465.31;5418344;26;20245;-72
2024/04/10 03:26:04;;;;;;;3.33;0.83;;;;;;;12.79;68.40;101463.56;5419347;26;20593;-72
2024/04/10 03:28:30;;;;;;;2.30;0.57;;;;;;;12.83;67.89;101469.19;5419797;26;20470;-72
2024/04/10 03:30:59;;;;;;;2.33;0.80;;;;;;;12.78;68.76;101467.34;5419505;26;20503;-71
2024/04/10 03:33:25;;;;;;;2.17;0.40;;;;;;;12.80;67.68;101469.81;5419501;26;21013;-72
2024/04/10 03:35:55;;;;;;;2.40;0.40;;;;;;;12.81;67.57;101477.66;5419062;26;20451;-71
2024/04/10 03:38:21;;;;;;;3.90;0.70;;;;;;;12.78;67.09;101480.94;5403889;26;20467;-71
2024/04/10 03:40:50;;;;;;;2.10;0.40;;;;;;;12.76;67.59;101488.59;5419301;26;20514;-71
2024/04/10 03:43:21;;;;;;;2.30;0.50;;;;;;;12.74;67.56;101496.22;5419245;26;20514;-70
2024/04/10 03:45:51;;;;;;;2.17;0.47;;;;;;;12.75;67.82;101506.03;5419335;26;20458;-71
2024/04/10 03:48:19;;;;;;;2.50;0.50;;;;;;;12.75;67.73;101511.47;5419203;26;20471;-70
2024/04/10 03:50:48;;;;;;;2.30;0.60;;;;;;;12.76;67.20;101513.06;5419240;26;20511;-70
2024/04/10 03:53:13;;;;;;;2.93;0.70;;;;;;;12.74;67.22;101517.97;5419167;26;20515;-68
2024/04/10 03:55:41;;;;;;;2.20;0.50;;;;;;;12.73;67.71;101521.00;5419241;26;20526;-71
2024/04/10 03:58:07;;;;;;;3.03;0.70;;;;;;;12.68;67.95;101519.16;5418908;26;20341;-71
2024/04/10 04:00:39;;;;;;;2.40;0.53;;;;;;;12.68;68.26;101523.78;5418818;26;20467;-70
2024/04/10 04:03:04;;;;;;;3.27;0.53;;;;;;;12.68;67.90;101532.75;5419054;26;20233;-70
2024/04/10 04:05:33;;;;;;;2.20;0.60;;;;;;;12.72;67.53;101533.78;5419073;26;20443;-70
2024/04/10 04:07:58;;;;;;;2.20;0.50;;;;;;;12.71;67.73;101542.25;5418847;26;20775;-71
2024/04/10 04:10:26;;;;;;;2.70;0.80;;;;;;;12.67;69.29;101536.56;5419178;26;20471;-72
2024/04/10 04:12:52;;;;;;;2.83;0.80;;;;;;;12.70;67.74;101535.97;5419421;26;20642;-72
2024/04/10 04:15:20;;;;;;;2.27;0.60;;;;;;;12.68;68.98;101540.91;5419021;26;20500;-72
2024/04/10 04:17:50;;;;;;;2.50;0.63;;;;;;;12.69;67.68;101544.44;5419032;26;20326;-71
2024/04/10 04:20:18;;;;;;;5.07;0.70;;;;;;;12.63;69.67;101554.56;5418407;26;20470;-72
2024/04/10 04:22:44;;;;;;;2.10;0.40;;;;;;;12.65;69.75;101555.06;5418777;26;20471;-73
2024/04/10 04:25:12;;;;;;;3.80;0.80;;;;;;;12.68;68.66;101557.22;5418971;26;21031;-69
2024/04/10 04:27:38;;;;;;;2.97;0.57;;;;;;;12.67;68.88;101565.66;5418830;26;20755;-69
2024/04/10 04:30:07;;;;;;;3.37;0.97;;;;;;;12.65;68.72;101578.72;5418382;26;20467;-69
2024/04/10 04:32:33;;;;;;;2.80;1.00;;;;;;;12.65;68.47;101573.28;5418423;26;20238;-75
2024/04/10 04:35:05;;;;;;;3.40;1.20;;;;;;;12.59;69.32;101578.00;5418274;26;20507;-72
2024/04/10 04:37:30;;;;;;;2.23;0.70;;;;;;;12.62;68.47;101580.13;5432976;26;20518;-68
2024/04/10 04:39:59;;;;;;;2.97;0.70;;;;;;;12.59;69.14;101575.28;5415652;26;20459;-68
2024/04/10 04:42:25;;;;;;;2.20;0.40;;;;;;;12.55;69.70;101587.81;5408320;26;20694;-69
2024/04/10 04:44:53;;;;;;;2.47;0.60;;;;;;;12.54;70.25;101592.44;5418488;26;20569;-68
2024/04/10 04:47:19;;;;;;;2.30;0.50;;;;;;;12.59;69.29;101605.16;5418455;26;20241;-68
2024/04/10 04:49:47;;;;;;;2.67;0.70;;;;;;;12.63;69.92;101600.78;5418292;26;20515;-68
2024/04/10 04:52:15;;;;;;;2.30;0.50;;;;;;;12.55;69.65;101613.09;5418328;26;20260;-68
2024/04/10 04:54:44;;;;;;;2.83;0.63;;;;;;;12.60;69.13;101617.66;5418311;26;20879;-67
2024/04/10 04:57:12;;;;;;;2.37;0.70;;;;;;;12.63;68.38;101623.31;5418231;26;20518;-67
2024/04/10 04:59:41;;;;;;;2.60;0.70;;;;;;;12.55;69.69;101639.44;5419078;26;20522;-67
2024/04/10 05:02:06;;;;;;;2.20;0.50;;;;;;;12.54;69.20;101646.81;5420686;26;21054;-68
2024/04/10 05:07:22;;;;;;;3.80;1.03;;;;;;;12.58;69.63;101657.91;5418707;26;20622;-68
2024/04/10 05:09:52;;;;;;;2.30;0.50;;;;;;;12.58;70.70;101660.63;5418229;26;20572;-68
2024/04/10 05:12:18;;;;;;;2.30;0.50;;;;;;;12.65;69.99;101671.94;5425166;26;20827;-68
2024/04/10 05:14:50;;;;;;;2.77;0.70;;;;;;;12.68;70.99;101674.09;5406881;26;20460;-70
2024/04/10 05:17:16;;;;;;;2.20;0.50;;;;;;;12.70;70.38;101677.34;5407287;26;20532;-70
2024/04/10 05:19:44;;;;;;;6.80;0.77;;;;;;;12.67;71.26;101668.97;5415104;26;20471;-70
2024/04/10 05:22:10;;;;;;;2.10;0.50;;;;;;;12.67;70.99;101677.94;5399121;26;20470;-70
2024/04/10 05:24:42;;;;;;;2.40;0.60;;;;;;;12.71;71.13;101678.97;5417219;26;20447;-70
2024/04/10 05:27:20;;;;;;;2.50;0.80;;;;;;;12.74;71.10;101689.25;5382403;26;20987;-69
2024/04/10 05:29:48;;;;;;;2.53;0.83;;;;;;;12.71;71.15;101678.16;5413313;26;20700;-69
2024/04/10 05:32:15;;;;;;;2.40;0.60;;;;;;;12.71;72.03;101689.84;5417616;26;20463;-69
2024/04/10 05:34:43;;;;;;;2.40;0.60;;;;;;;12.77;71.00;101691.41;5417694;26;20515;-70
2024/04/10 05:37:09;;;;;;;2.37;0.60;;;;;;;12.78;72.39;101695.72;5416484;26;20284;-70
2024/04/10 05:39:38;;;;;;;2.57;0.70;;;;;;;12.84;71.10;101705.47;5413113;26;20467;-69
2024/04/10 05:42:07;;;;;;;2.50;0.70;;;;;;;12.83;71.75;101722.88;5417536;26;20474;-69
2024/04/10 05:44:35;;;;;;;8.87;0.83;;;;;;;12.84;71.04;101719.06;5417512;26;20451;-69
2024/04/10 05:47:01;;;;;;;3.77;0.67;;;;;;;12.83;72.27;101722.88;5415382;26;21070;-72
2024/04/10 05:49:31;;;;;;;2.40;0.70;;;;;;;12.83;71.59;101725.59;5414845;26;20467;-70
2024/04/10 05:51:57;;;;;;;2.50;0.80;;;;;;;12.81;71.81;101729.72;5417697;26;20978;-70
2024/04/10 05:54:26;;;;;;;2.47;0.67;;;;;;;12.79;71.24;101721.84;5411778;26;20526;-70
2024/04/10 05:56:51;;;;;;;3.17;1.00;;;;;;;12.81;71.83;101727.78;5414557;26;20475;-70
2024/04/10 05:59:24;;;;;;;3.40;1.00;;;;;;;12.85;70.61;101728.84;5414630;26;20467;-71
2024/04/10 06:01:49;;;;;;;4.60;0.60;;;;;;;12.78;71.79;101733.81;5403375;26;20254;-70
2024/04/10 06:04:18;;;;;;;3.73;0.80;;;;;;;12.81;70.88;101738.66;5414502;26;20624;-71
2024/04/10 06:06:43;;;;;;;6.00;1.57;;;;;;;12.76;71.06;101746.88;5416122;26;20268;-69
2024/04/10 06:09:11;;;;;;;3.00;0.90;;;;;;;12.75;70.93;101745.28;5417108;26;20451;-70
2024/04/10 06:11:37;;;;;;;2.60;1.00;;;;;;;12.73;71.22;101744.72;5416775;26;20572;-72
2024/04/10 06:14:05;;;;;;;2.50;0.83;;;;;;;12.73;70.84;101742.00;5414239;26;20471;-72
2024/04/10 06:16:34;;;;;;;3.27;0.90;;;;;;;12.69;70.61;101751.84;5415071;26;20241;-72
2024/04/10 06:19:03;;;;;;;2.83;0.83;;;;;;;12.73;70.11;101752.88;5416741;26;20463;-69
2024/04/10 06:21:28;;;;;;;2.40;0.80;;;;;;;12.72;69.94;101753.19;5415977;26;20475;-70
2024/04/10 06:23:56;;;;;;;2.60;0.70;;;;;;;12.72;70.10;101751.28;5415440;26;20516;-70
2024/04/10 06:26:22;;;;;;;3.10;1.00;;;;;;;12.75;70.40;101756.16;5413941;26;20238;-70
2024/04/10 06:28:50;;;;;;;2.87;0.83;;;;;;;12.74;71.13;101751.78;5420950;26;21075;-72
2024/04/10 06:31:16;;;;;;;4.57;1.00;;;;;;;12.75;70.63;101758.88;5422991;26;20274;-72
2024/04/10 06:33:47;;;;;;;2.60;0.80;;;;;;;12.78;70.82;101757.47;5413114;26;20480;-71
2024/04/10 06:36:12;;;;;;;3.27;1.10;;;;;;;12.85;70.37;101758.75;5415721;26;20237;-71
2024/04/10 06:38:41;;;;;;;2.73;1.13;;;;;;;12.79;71.38;101767.22;5413066;26;21054;-74
2024/04/10 06:41:06;;;;;;;2.50;0.90;;;;;;;12.84;70.61;101769.94;5414933;26;20311;-69
2024/04/10 06:43:35;;;;;;;3.10;0.90;;;;;;;12.94;69.97;101777.16;5415850;26;20471;-70
2024/04/10 06:46:02;;;;;;;2.97;1.00;;;;;;;12.93;70.72;101781.81;5415829;26;20650;-71
2024/04/10 06:48:31;;;;;;;2.50;0.63;;;;;;;12.97;70.21;101773.84;5412991;26;20845;-70
2024/04/10 06:51:00;;;;;;;2.90;0.90;;;;;;;12.92;69.89;101793.75;5415352;26;20568;-69
2024/04/10 06:53:29;;;;;;;7.60;1.03;;;;;;;12.89;70.08;101788.91;5413590;26;20471;-71
2024/04/10 06:55:56;;;;;;;4.60;1.33;;;;;;;12.91;69.63;101791.34;5415246;26;20471;-70
2024/04/10 06:58:25;;;;;;;2.63;0.77;;;;;;;12.91;70.31;101791.34;5403669;26;21159;-70
2024/04/10 07:00:56;;;;;;;2.60;0.90;;;;;;;12.96;69.93;101794.00;5402668;26;20535;-69
2024/04/10 07:03:24;;;;;;;8.90;1.10;;;;;;;12.94;69.02;101797.00;5404461;26;21140;-70
2024/04/10 07:05:50;;;;;;;3.13;1.07;;;;;;;12.95;69.65;101795.09;5400876;26;20462;-69
2024/04/10 07:08:21;;;;;;;5.33;0.90;;;;;;;12.88;69.70;101804.41;5402120;26;20524;-70
2024/04/10 07:10:51;;;;;;;2.87;1.17;;;;;;;12.84;69.04;101800.66;5399139;26;20328;-70
2024/04/10 07:13:20;;;;;;;2.70;0.70;;;;;;;12.86;70.53;101805.78;5404765;26;20476;-72
2024/04/10 07:15:47;;;;;;;2.60;0.67;;;;;;;12.92;70.22;101814.72;5412034;26;21143;-69
2024/04/10 07:18:16;;;;;;;3.50;1.10;;;;;;;12.91;68.22;101823.97;5412984;26;20523;-70
2024/04/10 07:20:42;;;;;;;4.33;1.33;;;;;;;12.92;69.64;101820.16;5384304;26;20987;-70
2024/04/10 07:23:10;;;;;;;2.53;0.83;;;;;;;13.01;69.75;101823.88;5390299;26;20479;-70
2024/04/10 07:25:38;;;;;;;2.77;0.80;;;;;;;13.13;70.75;101824.28;5417884;26;20241;-71
2024/04/10 07:28:07;;;;;;;3.60;1.17;;;;;;;13.25;68.58;101841.06;5407625;26;20553;-71
2024/04/10 07:30:33;;;;;;;2.47;0.60;;;;;;;13.29;68.68;101842.13;5417986;26;20478;-69
2024/04/10 07:33:03;;;;;;;2.30;0.60;;;;;;;13.38;67.88;101843.13;5416972;26;20557;-70
2024/04/10 07:35:29;;;;;;;2.67;0.73;;;;;;;13.38;67.37;101842.31;5417340;26;20822;-69
2024/04/10 07:37:57;;;;;;;2.83;0.83;;;;;;;13.33;68.08;101845.91;5418465;26;20457;-69
2024/04/10 07:40:23;;;;;;;2.70;1.10;;;;;;;13.32;68.76;101848.88;5418375;26;20691;-70
2024/04/10 07:42:54;;;;;;;2.70;1.00;;;;;;;13.40;67.69;101856.41;5418047;26;20470;-68
2024/04/10 07:45:19;;;;;;;6.23;0.80;;;;;;;13.35;68.43;101868.19;5415878;26;20253;-69
2024/04/10 07:47:48;;;;;;;3.33;0.70;;;;;;;13.32;66.71;101857.03;5431240;21;20519;-65
2024/04/10 07:50:14;;;;;;;2.40;0.73;;;;;;;13.33;67.52;101861.41;5380810;26;20750;-67
2024/04/10 07:52:42;;;;;;;2.40;0.77;;;;;;;13.40;68.03;101874.66;5380174;26;20481;-68
2024/04/10 07:55:08;;;;;;;2.70;0.90;;;;;;;13.46;65.75;101871.63;5382214;26;20469;-68
2024/04/10 07:57:36;;;;;;;5.27;0.87;;;;;;;13.54;67.03;101886.47;5383735;26;20555;-68
2024/04/10 08:00:08;;;;;;;2.50;0.70;;;;;;;13.58;64.71;101888.34;5378275;26;20294;-67
2024/04/10 08:02:36;;;;;;;2.50;0.70;;;;;;;13.59;64.36;101890.00;5363564;26;20476;-68
2024/04/10 08:05:02;;;;;;;2.70;1.00;;;;;;;13.56;64.41;101893.28;5380140;26;20477;-68
2024/04/10 08:07:31;;;;;;;2.43;0.63;;;;;;;13.66;64.94;101889.63;5382568;26;20469;-68
2024/04/10 08:09:57;;;;;;;2.90;0.87;;;;;;;13.74;65.49;101901.81;5380965;26;20488;-68
2024/04/10 08:12:25;;;;;;;2.60;0.90;;;;;;;13.70;63.71;101893.41;5382913;26;20573;-68
2024/04/10 08:14:51;;;;;;;3.07;0.90;;;;;;;13.72;64.48;101904.00;5383000;26;20777;-68
2024/04/10 08:17:22;;;;;;;2.73;0.70;;;;;;;13.66;64.54;101907.88;5380436;26;20468;-68
2024/04/10 08:19:48;;;;;;;2.63;0.87;;;;;;;13.61;65.25;101914.19;5380671;26;20476;-69
2024/04/10 08:22:17;;;;;;;3.30;1.07;;;;;;;13.62;65.63;101911.16;5383241;26;20452;-67
2024/04/10 08:24:42;;;;;;;2.53;0.83;;;;;;;13.60;66.14;101910.66;5378998;26;20238;-68
2024/04/10 08:27:11;;;;;;;5.97;1.50;;;;;;;13.70;64.96;101911.66;5363983;26;20608;-68
2024/04/10 08:29:36;;;;;;;3.40;0.97;;;;;;;13.79;66.42;101915.34;5373568;26;20242;-68
2024/04/10 08:32:05;;;;;;;3.00;0.73;;;;;;;13.83;65.99;101933.56;5378699;26;20476;-67
2024/04/10 08:34:33;;;;;;;3.43;0.87;;;;;;;13.98;64.23;101929.81;5383427;26;20223;-67
2024/04/10 08:37:01;;;;;;;2.93;0.90;;;;;;;14.07;63.53;101949.06;5380742;26;20533;-67
2024/04/10 08:39:27;;;;;;;2.40;0.70;;;;;;;14.07;63.90;101940.91;5370799;26;20529;-67
2024/04/10 08:41:56;;;;;;;3.10;1.10;;;;;;;14.15;63.83;101945.69;5379955;26;20469;-67
2024/04/10 08:44:25;;;;;;;3.27;1.00;;;;;;;14.18;62.46;101964.22;5382174;26;20293;-67
2024/04/10 08:46:55;;;;;;;5.87;1.23;;;;;;;14.20;64.45;101967.44;5381262;26;20575;-67
2024/04/10 08:49:21;;;;;;;2.77;0.60;;;;;;;14.19;62.27;101967.75;5381473;26;20492;-67
2024/04/10 08:51:54;;;;;;;2.70;0.70;;;;;;;14.20;62.89;101970.16;5383385;26;20464;-68
2024/04/10 08:54:21;;;;;;;2.57;0.73;;;;;;;14.32;62.52;101973.28;5383910;26;20524;-67
2024/04/10 08:56:49;;;;;;;2.90;0.70;;;;;;;14.31;61.04;101977.13;5384255;26;20468;-67
2024/04/10 08:59:15;;;;;;;2.60;0.70;;;;;;;14.32;62.15;101984.19;5382610;26;20468;-67
2024/04/10 09:01:43;;;;;;;2.80;0.80;;;;;;;14.38;62.14;101987.66;5382323;26;20901;-66
2024/04/10 09:04:10;;;;;;;2.30;0.50;;;;;;;14.36;61.76;101985.25;5382043;26;20317;-68
2024/04/10 09:06:39;;;;;;;3.07;1.00;;;;;;;14.41;61.07;101986.28;5382519;26;20457;-66
2024/04/10 09:09:08;;;;;;;2.87;0.70;;;;;;;14.30;60.47;101989.13;5378856;26;20476;-65
2024/04/10 09:11:38;;;;;;;2.10;0.50;;;;;;;14.29;60.84;101997.59;5378756;26;20838;-65
2024/04/10 09:14:05;;;;;;;2.70;1.00;;;;;;;14.24;60.80;102003.91;5381712;26;20837;-65
2024/04/10 09:16:35;;;;;;;3.90;0.90;;;;;;;14.22;62.06;102008.84;5381023;26;20517;-65
2024/04/10 09:19:07;;;;;;;3.00;0.80;;;;;;;14.16;61.58;102007.28;5381810;26;20862;-66
2024/04/10 09:21:35;;;;;;;2.73;0.80;;;;;;;14.27;61.49;102016.16;5365523;26;20486;-66
2024/04/10 09:24:03;;;;;;;2.70;0.70;;;;;;;14.31;60.22;102017.22;5357827;26;20536;-65
2024/04/10 09:26:34;;;;;;;2.40;0.60;;;;;;;14.34;60.37;102014.72;5382340;26;20536;-66
2024/04/10 09:29:03;;;;;;;3.10;0.80;;;;;;;14.37;61.03;102016.84;5381052;26;20472;-65
2024/04/10 09:31:32;;;;;;;2.60;0.87;;;;;;;14.58;59.45;102008.44;5379800;26;20524;-65
2024/04/10 09:33:59;;;;;;;3.23;0.83;;;;;;;14.61;58.78;102025.03;5381697;26;20480;-66
2024/04/10 09:36:29;;;;;;;5.50;0.80;;;;;;;14.62;59.10;102025.84;5381399;26;20788;-65
2024/04/10 09:38:58;;;;;;;2.40;0.50;;;;;;;14.60;59.42;102028.84;5381031;26;20468;-65
2024/04/10 09:43:19;;;;;;;2.13;0.40;;;;;;;14.66;59.20;102035.06;5535920;25;21163;-65
2024/04/10 09:45:48;;;;;;;2.37;0.63;;;;;;;14.59;59.03;102032.69;5484504;26;20467;-68
2024/04/10 09:48:17;;;;;;;2.30;0.53;;;;;;;14.67;59.53;102036.69;5476399;25;20501;-69
2024/04/10 09:50:46;;;;;;;3.40;0.90;;;;;;;14.84;57.72;102025.28;5472296;26;20513;-69
2024/04/10 09:53:19;;;;;;;2.10;0.43;;;;;;;14.83;57.73;102027.19;5472155;26;20469;-69
2024/04/10 09:55:44;;;;;;;2.50;0.80;;;;;;;14.85;58.31;102041.34;5472287;26;20453;-69
2024/04/10 09:58:15;;;;;;;2.30;0.50;;;;;;;14.85;57.13;102054.97;5474829;26;21044;-68
2024/04/10 10:00:41;;;;;;;2.33;0.60;;;;;;;14.68;57.71;102040.22;5472508;26;20231;-69
2024/04/10 10:03:11;;;;;;;2.67;0.80;;;;;;;14.63;58.49;102046.56;5471860;26;20520;-68
2024/04/10 10:05:38;;;;;;;2.73;0.70;;;;;;;14.66;58.31;102051.44;5472301;26;20992;-68
2024/04/10 10:08:08;;;;;;;2.40;0.60;;;;;;;14.65;59.49;102057.97;5484559;26;20582;-68
2024/04/10 10:10:44;;;;;;;2.30;0.60;;;;;;;14.72;59.51;102052.16;5472032;26;20473;-68
2024/04/10 10:13:15;;;;;;;3.03;0.90;;;;;;;14.77;58.47;102050.19;5471828;26;20583;-68
2024/04/10 10:15:41;;;;;;;2.40;0.67;;;;;;;14.77;59.68;102055.63;5472260;26;20460;-67
2024/04/10 10:18:09;;;;;;;2.00;0.30;;;;;;;14.60;60.42;102058.03;5472728;26;21046;-68
2024/04/10 10:20:35;;;;;;;2.80;0.80;;;;;;;14.52;60.54;102062.25;5473431;25;20585;-68
2024/04/10 10:23:05;;;;;;;2.47;0.43;;;;;;;14.56;60.84;102076.09;5471305;26;20473;-68
2024/04/10 10:25:31;;;;;;;3.90;0.60;;;;;;;14.61;57.98;102073.31;5471849;26;20270;-68
2024/04/10 10:28:08;;;;;;;2.10;0.43;;;;;;;14.71;58.26;102081.38;5498290;26;20463;-67
2024/04/10 10:30:36;;;;;;;2.10;0.40;;;;;;;14.84;57.52;102077.91;5483411;25;20228;-68
2024/04/10 10:33:06;;;;;;;2.47;0.57;;;;;;;14.94;55.64;102071.50;5471880;26;20538;-69
2024/04/10 10:35:31;;;;;;;2.40;0.40;;;;;;;14.99;55.35;102078.81;5471675;26;21070;-68
2024/04/10 10:38:00;;;;;;;2.37;0.40;;;;;;;15.14;54.03;102076.69;5471626;26;20464;-68
2024/04/10 10:40:25;;;;;;;2.17;0.40;;;;;;;15.31;54.40;102078.06;5474216;26;20586;-68
2024/04/10 10:43:02;;;;;;;2.47;0.50;;;;;;;15.62;53.06;102078.41;5473936;26;20472;-68
2024/04/10 10:45:28;;;;;;;2.60;0.80;;;;;;;15.85;52.23;102091.19;5471659;26;20267;-68
2024/04/10 10:48:00;;;;;;;2.20;0.40;;;;;;;15.76;53.35;102092.13;5471260;26;21031;-67
2024/04/10 10:50:25;;;;;;;2.20;0.50;;;;;;;15.81;53.89;102090.16;5473366;26;20495;-67
2024/04/10 10:52:56;;;;;;;2.10;0.40;;;;;;;15.92;54.46;102089.97;5484202;25;20464;-68
2024/04/10 10:55:21;;;;;;;3.07;1.07;;;;;;;15.84;53.38;102097.72;5474857;26;20597;-70
2024/04/10 10:57:49;;;;;;;2.10;0.40;;;;;;;15.76;53.99;102097.59;5456607;26;20462;-68
2024/04/10 11:00:17;;;;;;;2.20;0.40;;;;;;;15.66;54.53;102097.78;5455919;26;20318;-69
2024/04/10 11:02:45;;;;;;;2.20;0.50;;;;;;;15.48;53.54;102107.59;5463532;26;20562;-65
2024/04/10 11:05:14;;;;;;;2.03;0.40;;;;;;;15.36;54.56;102100.66;5485624;26;20900;-66
2024/04/10 11:07:43;;;;;;;2.20;0.40;;;;;;;15.40;53.99;102100.88;5456390;26;20458;-66
2024/04/10 11:10:11;;;;;;;2.17;0.40;;;;;;;15.52;53.92;102101.22;5466860;26;20528;-65
2024/04/10 11:12:39;;;;;;;2.00;0.30;;;;;;;15.49;52.99;102101.00;5457618;26;20477;-65
2024/04/10 11:15:06;;;;;;;4.10;0.50;;;;;;;15.52;52.37;102114.06;5455536;26;20509;-65
2024/04/10 11:17:35;;;;;;;2.00;0.40;;;;;;;15.42;52.68;102116.97;5482571;26;20494;-65
2024/04/10 11:20:00;;;;;;;2.43;0.60;;;;;;;15.25;53.35;102118.28;5491758;26;20846;-65
2024/04/10 11:22:31;;;;;;;2.20;0.40;;;;;;;15.19;53.32;102121.41;5490115;26;20476;-65
2024/04/10 11:24:57;;;;;;;2.60;0.40;;;;;;;15.04;53.90;102119.69;5455316;26;20232;-65
2024/04/10 11:27:25;;;;;;;2.20;0.50;;;;;;;15.39;53.10;102132.03;5454582;26;20541;-65
2024/04/10 11:29:51;;;;;;;2.27;0.50;;;;;;;16.15;53.03;102138.19;5454179;26;20220;-65
2024/04/10 11:32:19;;;;;;;2.20;0.50;;;;;;;16.69;49.86;102131.19;5481911;26;20460;-65